createdAt,value
2019-04-05T00:01:12.326Z,13.15
2019-04-05T00:03:43.869Z,13.68
2019-04-05T00:06:15.742Z,13.65
2019-04-05T00:08:47.395Z,13.03
2019-04-05T00:11:18.756Z,14.57
2019-04-05T00:13:50.499Z,13.25
2019-04-05T00:16:21.838Z,14.30
2019-04-05T00:18:53.396Z,14.30
2019-04-05T00:21:24.945Z,13.83
2019-04-05T00:23:56.606Z,14.55
2019-04-05T00:26:28.154Z,13.88
2019-04-05T00:29:00.729Z,13.88
2019-04-05T00:31:32.552Z,14.47
2019-04-05T00:34:04.200Z,14.43
2019-04-05T00:36:35.968Z,9.93
2019-04-05T00:39:08.993Z,14.33
2019-04-05T00:41:40.469Z,16.27
2019-04-05T00:44:12.730Z,16.25
2019-04-05T00:46:44.816Z,15.27
2019-04-05T00:49:16.638Z,15.32
2019-04-05T00:51:48.216Z,14.10
2019-04-05T00:54:19.958Z,15.63
2019-04-05T00:56:51.291Z,11.70
2019-04-05T00:59:22.972Z,12.30
2019-04-05T01:01:54.408Z,12.90
2019-04-05T01:04:26.067Z,16.67
2019-04-05T01:06:57.925Z,12.93
2019-04-05T01:09:29.698Z,18.57
2019-04-05T01:12:01.024Z,17.80
2019-04-05T01:14:32.447Z,18.02
2019-04-05T01:19:35.688Z,16.65
2019-04-05T01:22:07.248Z,19.17
2019-04-05T01:24:39.027Z,14.28
2019-04-05T01:27:10.858Z,20.23
2019-04-05T01:29:43.187Z,20.40
2019-04-05T01:32:14.739Z,22.67
2019-04-05T01:34:46.277Z,22.17
2019-04-05T01:37:18.102Z,22.27
2019-04-05T01:39:51.190Z,20.50
2019-04-05T01:42:23.144Z,21.05
2019-04-05T01:44:54.900Z,16.40
2019-04-05T01:47:26.666Z,23.45
2019-04-05T01:49:58.219Z,16.95
2019-04-05T01:52:29.866Z,21.73
2019-04-05T01:55:01.291Z,16.60
2019-04-05T01:57:33.074Z,15.60
2019-04-05T02:00:10.189Z,20.35
2019-04-05T02:02:41.708Z,20.97
2019-04-05T02:05:13.874Z,21.03
2019-04-05T02:07:45.427Z,22.42
2019-04-05T02:10:17.073Z,22.73
2019-04-05T02:12:48.737Z,24.25
2019-04-05T02:15:27.403Z,21.57
2019-04-05T02:17:58.882Z,22.60
2019-04-05T02:20:30.255Z,25.75
2019-04-05T02:23:01.822Z,25.48
2019-04-05T02:25:33.331Z,21.17
2019-04-05T02:28:05.042Z,18.45
2019-04-05T02:30:36.680Z,23.07
2019-04-05T02:33:08.262Z,24.65
2019-04-05T02:35:39.612Z,17.50
2019-04-05T02:38:11.262Z,19.23
2019-04-05T02:40:43.334Z,21.10
2019-04-05T02:43:15.567Z,15.45
2019-04-05T02:45:47.082Z,13.95
2019-04-05T02:48:18.771Z,19.32
2019-04-05T02:50:52.490Z,13.53
2019-04-05T02:53:24.338Z,17.40
2019-04-05T02:55:55.783Z,15.28
2019-04-05T02:58:27.431Z,15.83
2019-04-05T03:00:59.147Z,15.83
2019-04-05T03:03:31.030Z,18.45
2019-04-05T03:06:02.617Z,18.73
2019-04-05T03:08:34.366Z,19.07
2019-04-05T03:11:06.865Z,17.12
2019-04-05T03:13:47.310Z,16.62
2019-04-05T03:16:21.310Z,16.87
2019-04-05T03:18:58.936Z,17.42
2019-04-05T03:21:30.481Z,16.35
2019-04-05T03:24:03.731Z,13.07
2019-04-05T03:26:38.441Z,19.02
2019-04-05T03:31:44.921Z,18.75
2019-04-05T03:34:16.342Z,13.70
2019-04-05T03:36:51.413Z,19.20
2019-04-05T03:39:23.093Z,22.20
2019-04-05T03:41:54.788Z,19.77
2019-04-05T03:44:26.817Z,20.45
2019-04-05T03:46:59.578Z,19.65
2019-04-05T03:49:31.265Z,18.67
2019-04-05T03:52:03.434Z,18.80
2019-04-05T03:54:36.113Z,19.07
2019-04-05T03:57:07.871Z,19.40
2019-04-05T03:59:39.637Z,17.30
2019-04-05T04:02:11.215Z,17.77
2019-04-05T04:07:14.686Z,19.02
2019-04-05T04:09:46.613Z,19.65
2019-04-05T04:12:18.419Z,18.90
2019-04-05T04:14:50.006Z,19.23
2019-04-05T04:19:53.198Z,18.45
2019-04-05T04:22:27.625Z,19.65
2019-04-05T04:24:59.474Z,19.02
2019-04-05T04:27:30.930Z,18.27
2019-04-05T04:30:02.671Z,19.23
2019-04-05T04:32:35.438Z,18.60
2019-04-05T04:35:06.960Z,17.35
2019-04-05T04:37:38.638Z,19.15
2019-04-05T04:40:10.228Z,19.97
2019-04-05T04:42:42.068Z,19.20
2019-04-05T04:45:14.347Z,19.52
2019-04-05T04:47:46.369Z,18.65
2019-04-05T04:50:17.856Z,20.15
2019-04-05T04:52:49.637Z,20.07
2019-04-05T04:55:21.924Z,18.50
2019-04-05T04:57:53.718Z,18.05
2019-04-05T05:00:25.194Z,17.75
2019-04-05T05:02:56.910Z,19.00
2019-04-05T05:05:28.193Z,19.48
2019-04-05T05:08:00.054Z,20.08
2019-04-05T05:10:31.875Z,18.95
2019-04-05T05:13:03.817Z,20.00
2019-04-05T05:15:35.263Z,19.53
2019-04-05T05:18:06.882Z,19.00
2019-04-05T05:20:38.366Z,18.92
2019-04-05T05:23:10.182Z,19.77
2019-04-05T05:25:41.945Z,19.82
2019-04-05T05:28:13.625Z,19.30
2019-04-05T05:30:45.096Z,19.48
2019-04-05T05:33:16.720Z,20.20
2019-04-05T05:35:48.114Z,20.48
2019-04-05T05:38:19.821Z,20.10
2019-04-05T05:40:51.372Z,19.77
2019-04-05T05:43:24.013Z,20.77
2019-04-05T05:45:55.603Z,20.37
2019-04-05T05:48:27.259Z,19.82
2019-04-05T05:50:58.926Z,21.82
2019-04-05T05:53:30.565Z,21.20
2019-04-05T05:56:02.226Z,21.35
2019-04-05T05:58:33.885Z,20.02
2019-04-05T06:01:05.431Z,21.25
2019-04-05T06:03:37.248Z,19.15
2019-04-05T06:06:08.677Z,18.95
2019-04-05T06:08:40.831Z,18.62
2019-04-05T06:11:12.768Z,18.37
2019-04-05T06:16:15.403Z,22.15
2019-04-05T06:18:48.636Z,17.48
2019-04-05T06:21:20.622Z,17.07
2019-04-05T06:23:52.476Z,17.98
2019-04-05T06:26:23.879Z,17.60
2019-04-05T06:28:55.590Z,16.97
2019-04-05T06:31:27.352Z,17.05
2019-04-05T06:33:59.002Z,17.50
2019-04-05T06:36:30.559Z,16.70
2019-04-05T06:39:01.934Z,18.20
2019-04-05T06:41:34.070Z,17.48
2019-04-05T06:44:05.641Z,18.30
2019-04-05T06:46:37.684Z,16.45
2019-04-05T06:49:09.557Z,17.27
2019-04-05T06:51:41.200Z,16.70
2019-04-05T06:54:12.557Z,16.57
2019-04-05T06:56:44.205Z,16.35
2019-04-05T06:59:15.655Z,16.02
2019-04-05T07:01:47.451Z,16.60
2019-04-05T07:04:19.270Z,15.78
2019-04-05T07:06:51.030Z,14.78
2019-04-05T07:09:22.475Z,16.05
2019-04-05T07:11:54.039Z,15.53
2019-04-05T07:14:25.310Z,13.13
2019-04-05T07:16:57.141Z,14.68
2019-04-05T07:19:30.072Z,14.53
2019-04-05T07:24:32.317Z,14.95
2019-04-05T07:27:03.783Z,15.50
2019-04-05T07:29:35.563Z,15.00
2019-04-05T07:32:07.091Z,13.93
2019-04-05T07:34:38.791Z,14.25
2019-04-05T07:37:10.183Z,13.78
2019-04-05T07:39:41.850Z,14.33
2019-04-05T07:42:13.287Z,14.73
2019-04-05T07:44:45.007Z,13.05
2019-04-05T07:47:16.483Z,13.18
2019-04-05T07:49:48.855Z,11.28
2019-04-05T07:54:51.252Z,12.80
2019-04-05T07:57:22.805Z,12.68
2019-04-05T07:59:54.566Z,13.60
2019-04-05T08:02:26.022Z,12.55
2019-04-05T08:04:57.880Z,12.90
2019-04-05T08:07:31.889Z,12.13
2019-04-05T08:10:03.437Z,12.90
2019-04-05T08:12:35.155Z,12.05
2019-04-05T08:15:06.887Z,12.28
2019-04-05T08:17:38.305Z,11.50
2019-04-05T08:20:10.012Z,10.30
2019-04-05T08:22:41.873Z,8.90
2019-04-05T08:25:13.579Z,9.30
2019-04-05T08:30:16.685Z,10.23
2019-04-05T08:32:48.165Z,10.08
2019-04-05T08:35:19.519Z,11.97
2019-04-05T08:37:51.648Z,12.25
2019-04-05T08:40:23.362Z,10.90
2019-04-05T08:42:54.861Z,12.25
2019-04-05T08:45:26.815Z,10.10
2019-04-05T08:47:58.579Z,11.30
2019-04-05T08:50:30.204Z,10.65
2019-04-05T08:53:01.683Z,12.27
2019-04-05T08:55:33.557Z,10.30
2019-04-05T08:58:04.883Z,11.87
2019-04-05T09:00:36.433Z,11.30
2019-04-05T09:03:07.931Z,10.30
2019-04-05T09:05:39.674Z,10.65
2019-04-05T09:08:11.336Z,10.58
2019-04-05T09:10:43.261Z,10.75
2019-04-05T09:13:14.711Z,9.93
2019-04-05T09:15:46.454Z,10.68
2019-04-05T09:18:18.697Z,10.95
2019-04-05T09:20:50.206Z,11.43
2019-04-05T09:23:21.947Z,10.73
2019-04-05T09:25:53.298Z,10.43
2019-04-05T09:28:25.119Z,11.37
2019-04-05T09:30:56.815Z,10.53
2019-04-05T09:33:28.379Z,10.18
2019-04-05T09:35:59.967Z,11.03
2019-04-05T09:38:32.011Z,11.47
2019-04-05T09:41:03.896Z,10.53
2019-04-05T09:43:35.930Z,9.93
2019-04-05T09:46:07.573Z,10.72
2019-04-05T09:48:39.341Z,10.70
2019-04-05T09:51:10.780Z,10.55
2019-04-05T09:56:14.184Z,9.70
2019-04-05T09:58:46.039Z,9.13
2019-04-05T10:03:49.279Z,9.93
2019-04-05T10:06:20.931Z,8.70
2019-04-05T10:08:52.569Z,7.70
2019-04-05T10:11:24.138Z,7.72
2019-04-05T10:13:55.978Z,9.03
2019-04-05T10:16:27.460Z,8.40
2019-04-05T10:18:59.631Z,8.68
2019-04-05T10:21:31.299Z,8.65
2019-04-05T10:24:02.860Z,8.50
2019-04-05T10:26:34.454Z,9.13
2019-04-05T10:29:05.728Z,9.25
2019-04-05T10:31:37.567Z,8.60
2019-04-05T10:34:09.426Z,8.30
2019-04-05T10:36:42.207Z,7.40
2019-04-05T10:39:13.706Z,8.45
2019-04-05T10:41:45.543Z,7.60
2019-04-05T10:44:17.850Z,7.80
2019-04-05T10:46:49.585Z,7.78
2019-04-05T10:49:21.167Z,7.40
2019-04-05T10:51:52.852Z,7.15
2019-04-05T10:54:25.248Z,7.03
2019-04-05T10:56:57.023Z,6.92
2019-04-05T10:59:29.582Z,24.32
2019-04-05T11:02:01.987Z,10.80
2019-04-05T11:04:33.611Z,8.13
2019-04-05T11:07:05.760Z,7.30
2019-04-05T11:09:37.130Z,7.90
2019-04-05T11:12:09.814Z,7.87
2019-04-05T11:14:41.286Z,8.10
2019-04-05T11:17:12.886Z,21.27
2019-04-05T11:19:44.338Z,8.83
2019-04-05T11:22:20.137Z,7.50
2019-04-05T11:24:50.015Z,8.55
2019-04-05T11:27:21.568Z,7.60
2019-04-05T11:29:53.212Z,8.27
2019-04-05T11:32:24.662Z,8.47
2019-04-05T11:34:56.424Z,11.73
2019-04-05T11:37:28.133Z,9.57
2019-04-05T11:40:00.082Z,7.30
2019-04-05T11:42:33.046Z,13.77
2019-04-05T11:45:05.747Z,7.83
2019-04-05T11:47:37.873Z,8.15
2019-04-05T11:50:10.919Z,8.35
2019-04-05T11:52:42.582Z,7.78
2019-04-05T11:55:18.176Z,8.38
2019-04-05T11:57:48.702Z,7.83
2019-04-05T12:00:37.135Z,7.65
2019-04-05T12:03:10.692Z,8.48
2019-04-05T12:05:42.512Z,8.15
2019-04-05T12:08:13.855Z,7.93
2019-04-05T12:10:46.532Z,7.28
2019-04-05T12:13:18.209Z,7.43
2019-04-05T12:15:49.840Z,7.65
2019-04-05T12:18:21.197Z,7.83
2019-04-05T12:20:59.909Z,8.50
2019-04-05T12:23:25.969Z,7.12
2019-04-05T12:25:57.722Z,7.72
2019-04-05T12:28:29.179Z,7.57
2019-04-05T12:31:00.782Z,7.70
2019-04-05T12:33:32.787Z,8.78
2019-04-05T12:36:04.616Z,7.62
2019-04-05T12:38:36.174Z,8.03
2019-04-05T12:41:10.709Z,8.45
2019-04-05T12:43:44.014Z,8.35
2019-04-05T12:46:16.096Z,7.95
2019-04-05T12:48:48.072Z,8.28
2019-04-05T12:51:19.776Z,8.98
2019-04-05T12:53:51.734Z,9.10
2019-04-05T12:56:24.386Z,9.18
2019-04-05T12:58:56.730Z,10.18
2019-04-05T13:01:28.734Z,11.05
2019-04-05T13:04:00.202Z,9.70
2019-04-05T13:06:32.497Z,9.95
2019-04-05T13:09:05.908Z,9.38
2019-04-05T13:11:37.719Z,10.15
2019-04-05T13:14:09.395Z,10.28
2019-04-05T13:16:41.121Z,10.10
2019-04-05T13:19:12.898Z,10.70
2019-04-05T13:21:44.452Z,9.75
2019-04-05T13:24:16.120Z,9.48
2019-04-05T13:26:47.757Z,9.55
2019-04-05T13:29:20.281Z,9.80
2019-04-05T13:31:51.997Z,10.15
2019-04-05T13:34:25.957Z,9.80
2019-04-05T13:36:59.359Z,10.20
2019-04-05T13:39:30.879Z,10.25
2019-04-05T13:42:02.510Z,10.60
2019-04-05T13:44:35.667Z,10.50
2019-04-05T13:47:08.480Z,11.30
2019-04-05T13:49:40.675Z,11.18
2019-04-05T13:54:44.308Z,9.65
2019-04-05T13:57:16.449Z,9.60
2019-04-05T13:59:48.938Z,9.85
2019-04-05T14:02:21.131Z,11.22
2019-04-05T14:04:54.296Z,10.53
2019-04-05T14:07:26.492Z,10.00
2019-04-05T14:09:57.889Z,11.43
2019-04-05T14:12:31.295Z,13.60
2019-04-05T14:15:02.741Z,12.05
2019-04-05T14:17:35.053Z,11.75
2019-04-05T14:20:09.086Z,11.83
2019-04-05T14:22:40.800Z,10.68
2019-04-05T14:25:12.573Z,11.53
2019-04-05T14:27:44.615Z,11.33
2019-04-05T14:30:16.037Z,10.68
2019-04-05T14:32:50.852Z,10.93
2019-04-05T14:35:24.532Z,12.00
2019-04-05T14:37:55.244Z,10.68
2019-04-05T14:40:29.365Z,11.63
2019-04-05T14:43:00.258Z,11.15
2019-04-05T14:45:31.800Z,10.48
2019-04-05T14:48:03.599Z,10.45
2019-04-05T14:50:35.234Z,12.37
2019-04-05T14:53:07.001Z,12.37
2019-04-05T14:55:38.559Z,10.68
2019-04-05T14:58:10.783Z,11.53
2019-04-05T15:00:42.107Z,11.20
2019-04-05T15:03:14.253Z,11.53
2019-04-05T15:05:46.033Z,11.07
2019-04-05T15:08:20.312Z,12.53
2019-04-05T15:10:51.479Z,11.65
2019-04-05T15:13:24.310Z,12.30
2019-04-05T15:15:56.786Z,12.55
2019-04-05T15:18:28.503Z,10.45
2019-04-05T15:21:00.118Z,10.95
2019-04-05T15:23:32.061Z,8.93
2019-04-05T15:26:03.960Z,9.43
2019-04-05T15:28:35.781Z,10.35
2019-04-05T15:31:07.297Z,10.03
2019-04-05T15:33:39.051Z,9.33
2019-04-05T15:36:10.605Z,9.37
2019-04-05T15:38:42.308Z,9.28
2019-04-05T15:41:13.951Z,8.53
2019-04-05T15:43:45.864Z,9.23
2019-04-05T15:46:17.577Z,8.95
2019-04-05T15:48:51.814Z,9.08
2019-04-05T15:51:24.818Z,9.50
2019-04-05T15:53:56.329Z,9.03
2019-04-05T15:56:27.730Z,10.03
2019-04-05T15:59:03.708Z,10.20
2019-04-05T16:01:34.358Z,11.00
2019-04-05T16:04:06.153Z,11.00
2019-04-05T16:06:39.060Z,11.20
2019-04-05T16:09:13.369Z,10.70
2019-04-05T16:11:44.921Z,10.88
2019-04-05T16:14:16.736Z,12.43
2019-04-05T16:16:48.429Z,11.20
2019-04-05T16:19:20.477Z,11.57
2019-04-05T16:21:52.501Z,11.95
2019-04-05T16:24:23.816Z,13.50
2019-04-05T16:26:55.735Z,13.40
2019-04-05T16:29:27.220Z,15.00
2019-04-05T16:31:59.143Z,15.50
2019-04-05T16:34:30.597Z,15.20
2019-04-05T16:37:02.351Z,17.52
2019-04-05T16:39:33.771Z,20.88
2019-04-05T16:42:05.382Z,20.85
2019-04-05T16:44:37.438Z,20.82
2019-04-05T16:47:09.544Z,20.68
2019-04-05T16:49:40.833Z,20.13
2019-04-05T16:52:13.165Z,23.23
2019-04-05T16:54:44.448Z,23.38
2019-04-05T16:57:16.630Z,32.50
2019-04-05T16:59:48.471Z,29.97
2019-04-05T17:04:51.378Z,30.35
2019-04-05T17:07:57.031Z,32.78
2019-04-05T17:10:29.711Z,23.77
2019-04-05T17:13:01.176Z,18.50
2019-04-05T17:15:32.926Z,16.80
2019-04-05T17:18:05.783Z,14.68
2019-04-05T17:20:37.568Z,17.48
2019-04-05T17:23:08.889Z,12.60
2019-04-05T17:25:40.791Z,24.90
2019-04-05T17:28:12.525Z,12.63
2019-04-05T17:30:44.393Z,12.78
2019-04-05T17:33:16.079Z,12.50
2019-04-05T17:35:47.696Z,14.30
2019-04-05T17:38:19.336Z,14.15
2019-04-05T17:40:50.950Z,14.53
2019-04-05T17:43:23.295Z,15.30
2019-04-05T17:45:55.123Z,14.20
2019-04-05T17:48:26.863Z,15.68
2019-04-05T17:50:58.454Z,12.82
2019-04-05T17:53:29.911Z,14.23
2019-04-05T17:56:01.508Z,12.50
2019-04-05T17:58:33.617Z,12.63
2019-04-05T18:01:05.584Z,13.13
2019-04-05T18:03:37.558Z,12.63
2019-04-05T18:06:08.945Z,11.97
2019-04-05T18:08:40.860Z,11.90
2019-04-05T18:11:12.235Z,12.83
2019-04-05T18:13:44.821Z,12.28
2019-04-05T18:16:16.333Z,12.47
2019-04-05T18:18:48.250Z,11.22
2019-04-05T18:21:19.647Z,12.95
2019-04-05T18:23:51.395Z,12.07
2019-04-05T18:26:22.752Z,11.83
2019-04-05T18:28:54.808Z,11.63
2019-04-05T18:31:26.299Z,12.18
2019-04-05T18:33:58.351Z,12.35
2019-04-05T18:36:29.983Z,11.33
2019-04-05T18:39:01.667Z,11.93
2019-04-05T18:41:34.694Z,11.60
2019-04-05T18:44:06.209Z,12.15
2019-04-05T18:46:37.532Z,12.78
2019-04-05T18:49:09.711Z,11.45
2019-04-05T18:51:41.043Z,9.90
2019-04-05T18:54:12.710Z,15.35
2019-04-05T18:56:44.251Z,15.15
2019-04-05T18:59:16.027Z,14.47
2019-04-05T19:01:47.476Z,13.62
2019-04-05T19:04:19.423Z,13.97
2019-04-05T19:06:52.186Z,14.85
2019-04-05T19:09:25.843Z,14.83
2019-04-05T19:11:57.252Z,15.08
2019-04-05T19:14:28.869Z,14.55
2019-04-05T19:17:00.340Z,15.10
2019-04-05T19:19:32.205Z,14.05
2019-04-05T19:22:03.771Z,14.78
2019-04-05T19:24:35.439Z,16.57
2019-04-05T19:27:07.082Z,14.53
2019-04-05T19:29:38.937Z,13.83
2019-04-05T19:49:24.536Z,18.85
2019-04-05T19:51:56.255Z,19.60
2019-04-05T19:54:27.841Z,20.82
2019-04-05T19:56:59.409Z,19.70
2019-04-05T19:59:31.221Z,21.75
2019-04-05T20:02:03.011Z,24.77
2019-04-05T20:04:34.695Z,24.67
2019-04-05T20:07:06.259Z,26.17
2019-04-05T20:09:38.809Z,26.80
2019-04-05T20:12:10.566Z,31.30
2019-04-05T20:14:42.235Z,32.73
2019-04-05T20:17:14.110Z,33.20
2019-04-05T20:19:45.518Z,35.47
2019-04-05T20:22:17.283Z,37.88
2019-04-05T20:24:49.143Z,34.65
2019-04-05T20:27:20.938Z,27.13
2019-04-05T20:29:52.484Z,26.07
2019-04-05T20:32:24.107Z,20.45
2019-04-05T20:34:55.725Z,21.42
2019-04-05T20:37:27.539Z,22.77
2019-04-05T20:39:59.082Z,25.65
2019-04-05T20:42:30.981Z,30.05
2019-04-05T20:45:02.767Z,28.12
2019-04-05T20:47:34.766Z,30.77
2019-04-05T20:50:07.247Z,26.27
2019-04-05T20:55:09.516Z,27.20
2019-04-05T20:57:41.409Z,28.62
2019-04-05T21:00:13.553Z,28.73
2019-04-05T21:02:45.045Z,29.65
2019-04-05T21:05:24.851Z,27.67
2019-04-05T21:07:50.078Z,28.02
2019-04-05T21:10:21.519Z,29.45
2019-04-05T21:12:53.220Z,27.77
2019-04-05T21:15:24.717Z,25.75
2019-04-05T21:17:56.378Z,25.97
2019-04-05T21:20:27.826Z,28.92
2019-04-05T21:22:59.998Z,31.40
2019-04-05T21:25:31.336Z,32.40
2019-04-05T21:28:03.154Z,29.07
2019-04-05T21:30:34.695Z,30.85
2019-04-05T21:33:06.707Z,29.12
2019-04-05T21:35:38.448Z,28.90
2019-04-05T21:38:10.373Z,30.32
2019-04-05T21:40:41.828Z,31.10
2019-04-05T21:43:13.530Z,30.23
2019-04-05T21:45:45.181Z,23.90
2019-04-05T21:48:16.817Z,32.40
2019-04-05T21:50:48.499Z,32.57
2019-04-05T21:53:20.157Z,32.93
2019-04-05T21:55:51.609Z,34.85
2019-04-05T21:58:25.888Z,32.80
2019-04-05T22:00:58.335Z,34.95
2019-04-05T22:03:30.286Z,34.85
2019-04-05T22:06:03.147Z,33.45
2019-04-05T22:08:36.045Z,36.23
2019-04-05T22:11:08.069Z,35.33
2019-04-05T22:13:40.172Z,34.60
2019-04-05T22:16:12.125Z,34.67
2019-04-05T22:18:43.937Z,35.13
2019-04-05T22:21:15.649Z,35.92
2019-04-05T22:23:47.651Z,34.38
2019-04-05T22:26:19.358Z,32.90
2019-04-05T22:28:51.682Z,33.42
2019-04-05T22:31:23.382Z,33.28
2019-04-05T22:33:55.273Z,33.10
2019-04-05T22:36:27.300Z,34.35
2019-04-05T22:38:59.570Z,32.45
2019-04-05T22:41:31.173Z,34.33
2019-04-05T22:44:03.023Z,32.98
2019-04-05T22:46:34.600Z,32.90
2019-04-05T22:49:06.342Z,33.48
2019-04-05T22:51:38.569Z,34.73
2019-04-05T22:54:10.362Z,35.03
2019-04-05T22:56:42.085Z,36.68
2019-04-05T22:59:14.256Z,35.03
2019-04-05T23:01:46.150Z,33.50
2019-04-05T23:04:18.481Z,34.15
2019-04-05T23:06:50.121Z,35.45
2019-04-05T23:09:22.538Z,35.52
2019-04-05T23:11:54.209Z,35.03
2019-04-05T23:14:26.032Z,36.13
2019-04-05T23:16:57.615Z,36.28
2019-04-05T23:19:29.965Z,34.23
2019-04-05T23:22:01.710Z,34.90
2019-04-05T23:24:33.598Z,33.58
2019-04-05T23:27:05.308Z,31.90
2019-04-05T23:29:37.427Z,33.78
2019-04-05T23:34:40.529Z,31.68
2019-04-05T23:37:12.339Z,33.37
2019-04-05T23:39:44.086Z,34.73
2019-04-05T23:42:16.019Z,40.03
2019-04-05T23:44:48.071Z,40.92
2019-04-05T23:47:20.069Z,42.40
2019-04-05T23:49:51.647Z,39.30
2019-04-05T23:52:23.734Z,42.23
2019-04-05T23:54:55.396Z,39.18
2019-04-05T23:57:27.231Z,39.10
2019-04-05T23:59:59.092Z,38.98
